KEWR/EWR METAR and TAF weather

Enter ICAO airport designator
Station Type Date Time Source
KEWR METAR 2022/01/26 13:51 UTC NOAA

KEWR 261351Z 33011KT 10SM FEW043 FEW200 M06/M15 A3037 RMK AO2 SLP282 T10561150


Station Type Date Time Source
KEWR Decoded METAR 2022/01/26 13:51 UTC NOAA

NEWARK INTERNATIONAL AIRPORT, NJ, United States (KEWR) 40-41N 74-10W 7M
Jan 26, 2022 - 08:51 AM EST / 2022.01.26 1351 UTC
Wind: from the NNW (330 degrees) at 13 MPH (11 KT):0
Visibility: 10 mile(s):0
Sky conditions: mostly clear
Temperature: 21.9 F (-5.6 C)
Windchill: 10 F (-12 C):1
Dew Point: 5.0 F (-15.0 C)
Relative Humidity: 47%
Pressure (altimeter): 30.37 in. Hg (1028 hPa)
ob: KEWR 261351Z 33011KT 10SM FEW043 FEW200 M06/M15 A3037 RMK AO2 SLP282 T10561150
cycle: 14

Station Type Date Time Source
KEWR TAF 2022/01/26 12:33 UTC NOAA

TAF KEWR 261130Z 2612/2718 33010KT P6SM SKC
FM261600 32012G20KT P6SM FEW045
FM262300 32012KT P6SM SKC
FM270600 34004KT P6SM SKC
FM271200 VRB03KT P6SM SKC
FM271600 18007KT P6SM SKC

Example: see airport list